sensor_id;sensor_type;location;lat;lon;timestamp;P1;durP1;ratioP1;P2;durP2;ratioP2
72388;SDS011;60566;48.062;9.930;2022-07-30T00:02:09;7.18;;;4.65;;
72388;SDS011;60566;48.062;9.930;2022-07-30T00:04:35;7.35;;;4.38;;
72388;SDS011;60566;48.062;9.930;2022-07-30T00:07:01;6.82;;;4.18;;
72388;SDS011;60566;48.062;9.930;2022-07-30T00:09:27;8.38;;;4.68;;
72388;SDS011;60566;48.062;9.930;2022-07-30T00:11:52;8.38;;;4.47;;
72388;SDS011;60566;48.062;9.930;2022-07-30T00:14:17;7.72;;;4.40;;
72388;SDS011;60566;48.062;9.930;2022-07-30T00:16:43;7.90;;;4.03;;
72388;SDS011;60566;48.062;9.930;2022-07-30T00:19:08;7.28;;;4.53;;
72388;SDS011;60566;48.062;9.930;2022-07-30T00:21:34;7.15;;;4.45;;
72388;SDS011;60566;48.062;9.930;2022-07-30T00:24:00;7.50;;;4.85;;
72388;SDS011;60566;48.062;9.930;2022-07-30T00:26:26;8.38;;;4.63;;
72388;SDS011;60566;48.062;9.930;2022-07-30T00:28:51;7.85;;;4.75;;
72388;SDS011;60566;48.062;9.930;2022-07-30T00:31:17;7.28;;;4.80;;
72388;SDS011;60566;48.062;9.930;2022-07-30T00:33:42;8.80;;;4.72;;
72388;SDS011;60566;48.062;9.930;2022-07-30T00:36:07;7.32;;;5.10;;
72388;SDS011;60566;48.062;9.930;2022-07-30T00:38:33;7.72;;;4.55;;
72388;SDS011;60566;48.062;9.930;2022-07-30T00:40:59;8.68;;;4.80;;
72388;SDS011;60566;48.062;9.930;2022-07-30T00:43:25;7.38;;;4.82;;
72388;SDS011;60566;48.062;9.930;2022-07-30T00:45:50;8.32;;;4.55;;
72388;SDS011;60566;48.062;9.930;2022-07-30T00:48:16;7.00;;;4.47;;
72388;SDS011;60566;48.062;9.930;2022-07-30T00:50:41;6.55;;;4.15;;
72388;SDS011;60566;48.062;9.930;2022-07-30T00:53:07;7.25;;;4.55;;
72388;SDS011;60566;48.062;9.930;2022-07-30T00:55:32;7.47;;;4.68;;
72388;SDS011;60566;48.062;9.930;2022-07-30T00:58:00;7.05;;;4.05;;
72388;SDS011;60566;48.062;9.930;2022-07-30T01:00:25;10.07;;;4.78;;
72388;SDS011;60566;48.062;9.930;2022-07-30T01:02:51;8.23;;;4.55;;
72388;SDS011;60566;48.062;9.930;2022-07-30T01:05:17;9.80;;;5.25;;
72388;SDS011;60566;48.062;9.930;2022-07-30T01:07:42;8.50;;;4.80;;
72388;SDS011;60566;48.062;9.930;2022-07-30T01:10:09;7.78;;;4.63;;
72388;SDS011;60566;48.062;9.930;2022-07-30T01:12:35;7.68;;;4.53;;
72388;SDS011;60566;48.062;9.930;2022-07-30T01:15:03;7.82;;;5.10;;
72388;SDS011;60566;48.062;9.930;2022-07-30T01:17:29;7.85;;;4.72;;
72388;SDS011;60566;48.062;9.930;2022-07-30T01:19:55;7.90;;;4.78;;
72388;SDS011;60566;48.062;9.930;2022-07-30T01:22:27;7.80;;;4.80;;
72388;SDS011;60566;48.062;9.930;2022-07-30T01:25:00;9.02;;;4.45;;
72388;SDS011;60566;48.062;9.930;2022-07-30T01:27:32;6.53;;;4.22;;
72388;SDS011;60566;48.062;9.930;2022-07-30T01:30:02;7.57;;;4.60;;
72388;SDS011;60566;48.062;9.930;2022-07-30T01:32:29;7.78;;;4.32;;
72388;SDS011;60566;48.062;9.930;2022-07-30T01:34:55;7.22;;;4.50;;
72388;SDS011;60566;48.062;9.930;2022-07-30T01:37:21;7.75;;;5.38;;
72388;SDS011;60566;48.062;9.930;2022-07-30T01:39:47;7.85;;;4.63;;
72388;SDS011;60566;48.062;9.930;2022-07-30T01:42:13;6.32;;;4.05;;
72388;SDS011;60566;48.062;9.930;2022-07-30T01:44:40;7.60;;;5.10;;
72388;SDS011;60566;48.062;9.930;2022-07-30T01:47:07;7.70;;;5.35;;
72388;SDS011;60566;48.062;9.930;2022-07-30T01:49:33;9.68;;;4.95;;
72388;SDS011;60566;48.062;9.930;2022-07-30T01:52:00;6.65;;;4.35;;
72388;SDS011;60566;48.062;9.930;2022-07-30T01:54:26;7.30;;;4.50;;
72388;SDS011;60566;48.062;9.930;2022-07-30T01:56:52;8.95;;;5.47;;
72388;SDS011;60566;48.062;9.930;2022-07-30T01:59:18;8.93;;;4.95;;
72388;SDS011;60566;48.062;9.930;2022-07-30T02:01:46;7.97;;;4.50;;
72388;SDS011;60566;48.062;9.930;2022-07-30T02:04:12;7.38;;;5.10;;
72388;SDS011;60566;48.062;9.930;2022-07-30T02:06:38;8.40;;;4.82;;
72388;SDS011;60566;48.062;9.930;2022-07-30T02:11:30;8.20;;;5.40;;
72388;SDS011;60566;48.062;9.930;2022-07-30T02:13:57;9.23;;;5.15;;
72388;SDS011;60566;48.062;9.930;2022-07-30T02:16:23;9.77;;;4.97;;
72388;SDS011;60566;48.062;9.930;2022-07-30T02:18:54;9.88;;;5.38;;
72388;SDS011;60566;48.062;9.930;2022-07-30T02:21:22;8.52;;;5.05;;
72388;SDS011;60566;48.062;9.930;2022-07-30T02:23:48;8.60;;;5.50;;
72388;SDS011;60566;48.062;9.930;2022-07-30T02:26:16;9.40;;;5.80;;
72388;SDS011;60566;48.062;9.930;2022-07-30T02:28:43;8.73;;;5.95;;
72388;SDS011;60566;48.062;9.930;2022-07-30T02:31:09;8.50;;;5.03;;
72388;SDS011;60566;48.062;9.930;2022-07-30T02:33:36;7.85;;;5.05;;
72388;SDS011;60566;48.062;9.930;2022-07-30T02:36:04;7.75;;;5.43;;
72388;SDS011;60566;48.062;9.930;2022-07-30T02:38:30;9.13;;;5.00;;
72388;SDS011;60566;48.062;9.930;2022-07-30T02:40:56;11.00;;;5.57;;
72388;SDS011;60566;48.062;9.930;2022-07-30T02:43:23;8.68;;;5.05;;
72388;SDS011;60566;48.062;9.930;2022-07-30T02:45:49;9.05;;;4.85;;
72388;SDS011;60566;48.062;9.930;2022-07-30T02:48:14;8.70;;;5.40;;
72388;SDS011;60566;48.062;9.930;2022-07-30T02:50:41;10.45;;;5.55;;
72388;SDS011;60566;48.062;9.930;2022-07-30T02:53:09;9.27;;;4.90;;
72388;SDS011;60566;48.062;9.930;2022-07-30T02:55:35;10.52;;;5.53;;
72388;SDS011;60566;48.062;9.930;2022-07-30T02:58:04;7.55;;;5.30;;
72388;SDS011;60566;48.062;9.930;2022-07-30T03:00:30;8.68;;;5.80;;
72388;SDS011;60566;48.062;9.930;2022-07-30T03:02:56;9.75;;;5.63;;
72388;SDS011;60566;48.062;9.930;2022-07-30T03:05:21;7.90;;;5.40;;
72388;SDS011;60566;48.062;9.930;2022-07-30T03:07:48;9.02;;;5.30;;
72388;SDS011;60566;48.062;9.930;2022-07-30T03:10:14;8.60;;;5.40;;
72388;SDS011;60566;48.062;9.930;2022-07-30T03:12:40;8.70;;;5.80;;
72388;SDS011;60566;48.062;9.930;2022-07-30T03:17:36;8.18;;;5.47;;
72388;SDS011;60566;48.062;9.930;2022-07-30T03:20:02;9.90;;;5.85;;
72388;SDS011;60566;48.062;9.930;2022-07-30T03:22:30;8.73;;;5.38;;
72388;SDS011;60566;48.062;9.930;2022-07-30T03:24:56;8.48;;;5.60;;
72388;SDS011;60566;48.062;9.930;2022-07-30T03:27:23;8.82;;;5.57;;
72388;SDS011;60566;48.062;9.930;2022-07-30T03:29:49;10.43;;;6.22;;
72388;SDS011;60566;48.062;9.930;2022-07-30T03:32:16;10.55;;;5.93;;
72388;SDS011;60566;48.062;9.930;2022-07-30T03:34:42;11.88;;;6.75;;
72388;SDS011;60566;48.062;9.930;2022-07-30T03:37:08;9.13;;;6.15;;
72388;SDS011;60566;48.062;9.930;2022-07-30T03:39:34;9.77;;;5.88;;
72388;SDS011;60566;48.062;9.930;2022-07-30T03:42:00;11.00;;;6.07;;
72388;SDS011;60566;48.062;9.930;2022-07-30T03:44:26;12.13;;;5.97;;
72388;SDS011;60566;48.062;9.930;2022-07-30T03:46:52;8.90;;;5.97;;
72388;SDS011;60566;48.062;9.930;2022-07-30T03:49:19;9.18;;;6.05;;
72388;SDS011;60566;48.062;9.930;2022-07-30T03:51:45;11.25;;;5.68;;
72388;SDS011;60566;48.062;9.930;2022-07-30T03:54:11;8.73;;;6.22;;
72388;SDS011;60566;48.062;9.930;2022-07-30T03:56:36;11.32;;;6.43;;
72388;SDS011;60566;48.062;9.930;2022-07-30T03:59:02;7.97;;;5.65;;
72388;SDS011;60566;48.062;9.930;2022-07-30T04:01:29;10.52;;;6.50;;
72388;SDS011;60566;48.062;9.930;2022-07-30T04:03:55;8.57;;;5.75;;
72388;SDS011;60566;48.062;9.930;2022-07-30T04:06:29;9.27;;;5.75;;
72388;SDS011;60566;48.062;9.930;2022-07-30T04:08:54;9.35;;;6.20;;
72388;SDS011;60566;48.062;9.930;2022-07-30T04:11:20;10.85;;;5.72;;
72388;SDS011;60566;48.062;9.930;2022-07-30T04:13:45;9.93;;;6.18;;
72388;SDS011;60566;48.062;9.930;2022-07-30T04:16:15;9.13;;;5.47;;
72388;SDS011;60566;48.062;9.930;2022-07-30T04:18:46;10.82;;;5.45;;
72388;SDS011;60566;48.062;9.930;2022-07-30T04:21:14;8.82;;;5.25;;
72388;SDS011;60566;48.062;9.930;2022-07-30T04:23:40;8.55;;;5.60;;
72388;SDS011;60566;48.062;9.930;2022-07-30T04:26:07;9.25;;;5.60;;
72388;SDS011;60566;48.062;9.930;2022-07-30T04:28:33;8.68;;;5.50;;
72388;SDS011;60566;48.062;9.930;2022-07-30T04:30:59;8.50;;;5.28;;
72388;SDS011;60566;48.062;9.930;2022-07-30T04:33:24;8.50;;;6.18;;
72388;SDS011;60566;48.062;9.930;2022-07-30T04:35:51;9.80;;;6.10;;
72388;SDS011;60566;48.062;9.930;2022-07-30T04:38:16;9.32;;;5.95;;
72388;SDS011;60566;48.062;9.930;2022-07-30T04:40:42;10.23;;;5.95;;
72388;SDS011;60566;48.062;9.930;2022-07-30T04:43:07;10.27;;;6.15;;
72388;SDS011;60566;48.062;9.930;2022-07-30T04:45:33;9.38;;;5.90;;
72388;SDS011;60566;48.062;9.930;2022-07-30T04:47:58;8.88;;;5.65;;
72388;SDS011;60566;48.062;9.930;2022-07-30T04:50:24;9.45;;;5.53;;
72388;SDS011;60566;48.062;9.930;2022-07-30T04:52:52;8.48;;;5.15;;
72388;SDS011;60566;48.062;9.930;2022-07-30T04:55:17;9.27;;;5.68;;
72388;SDS011;60566;48.062;9.930;2022-07-30T04:57:44;8.45;;;5.72;;
72388;SDS011;60566;48.062;9.930;2022-07-30T05:00:11;9.15;;;5.70;;
72388;SDS011;60566;48.062;9.930;2022-07-30T05:02:37;10.95;;;5.97;;
72388;SDS011;60566;48.062;9.930;2022-07-30T05:05:05;9.13;;;6.18;;
72388;SDS011;60566;48.062;9.930;2022-07-30T05:07:31;10.80;;;5.75;;
72388;SDS011;60566;48.062;9.930;2022-07-30T05:09:58;9.77;;;6.03;;
72388;SDS011;60566;48.062;9.930;2022-07-30T05:12:30;10.30;;;6.18;;
72388;SDS011;60566;48.062;9.930;2022-07-30T05:14:56;10.15;;;5.65;;
72388;SDS011;60566;48.062;9.930;2022-07-30T05:17:21;12.48;;;6.38;;
72388;SDS011;60566;48.062;9.930;2022-07-30T05:19:47;9.70;;;6.00;;
72388;SDS011;60566;48.062;9.930;2022-07-30T05:22:12;9.80;;;5.75;;
72388;SDS011;60566;48.062;9.930;2022-07-30T05:24:37;8.95;;;5.40;;
72388;SDS011;60566;48.062;9.930;2022-07-30T05:27:04;8.73;;;5.93;;
72388;SDS011;60566;48.062;9.930;2022-07-30T05:29:30;8.93;;;6.05;;
72388;SDS011;60566;48.062;9.930;2022-07-30T05:31:55;10.20;;;6.00;;
72388;SDS011;60566;48.062;9.930;2022-07-30T05:34:20;9.25;;;5.82;;
72388;SDS011;60566;48.062;9.930;2022-07-30T05:36:46;10.35;;;6.47;;
72388;SDS011;60566;48.062;9.930;2022-07-30T05:39:11;11.48;;;6.50;;
72388;SDS011;60566;48.062;9.930;2022-07-30T05:41:37;9.40;;;6.07;;
72388;SDS011;60566;48.062;9.930;2022-07-30T05:44:03;9.60;;;6.05;;
72388;SDS011;60566;48.062;9.930;2022-07-30T05:46:29;8.55;;;5.50;;
72388;SDS011;60566;48.062;9.930;2022-07-30T05:48:54;8.40;;;5.55;;
72388;SDS011;60566;48.062;9.930;2022-07-30T05:51:20;9.13;;;5.70;;
72388;SDS011;60566;48.062;9.930;2022-07-30T05:53:45;13.38;;;6.07;;
72388;SDS011;60566;48.062;9.930;2022-07-30T05:56:11;8.18;;;5.68;;
72388;SDS011;60566;48.062;9.930;2022-07-30T05:58:36;9.52;;;6.47;;
72388;SDS011;60566;48.062;9.930;2022-07-30T06:01:03;8.30;;;5.68;;
72388;SDS011;60566;48.062;9.930;2022-07-30T06:03:28;12.15;;;6.07;;
72388;SDS011;60566;48.062;9.930;2022-07-30T06:05:53;9.65;;;5.93;;
72388;SDS011;60566;48.062;9.930;2022-07-30T06:08:19;10.48;;;6.03;;
72388;SDS011;60566;48.062;9.930;2022-07-30T06:10:44;10.82;;;7.10;;
72388;SDS011;60566;48.062;9.930;2022-07-30T06:13:09;14.55;;;7.53;;
72388;SDS011;60566;48.062;9.930;2022-07-30T06:15:35;12.63;;;7.22;;
72388;SDS011;60566;48.062;9.930;2022-07-30T06:18:02;10.98;;;6.95;;
72388;SDS011;60566;48.062;9.930;2022-07-30T06:20:27;11.90;;;7.50;;
72388;SDS011;60566;48.062;9.930;2022-07-30T06:22:52;12.13;;;7.18;;
72388;SDS011;60566;48.062;9.930;2022-07-30T06:25:18;11.30;;;7.50;;
72388;SDS011;60566;48.062;9.930;2022-07-30T06:27:43;12.60;;;7.40;;
72388;SDS011;60566;48.062;9.930;2022-07-30T06:30:09;10.63;;;7.07;;
72388;SDS011;60566;48.062;9.930;2022-07-30T06:32:35;11.82;;;6.93;;
72388;SDS011;60566;48.062;9.930;2022-07-30T06:35:02;14.05;;;8.23;;
72388;SDS011;60566;48.062;9.930;2022-07-30T06:37:27;14.07;;;8.32;;
72388;SDS011;60566;48.062;9.930;2022-07-30T06:39:53;13.35;;;8.20;;
72388;SDS011;60566;48.062;9.930;2022-07-30T06:42:18;12.93;;;7.53;;
72388;SDS011;60566;48.062;9.930;2022-07-30T06:44:43;11.65;;;8.20;;
72388;SDS011;60566;48.062;9.930;2022-07-30T06:47:09;12.57;;;8.65;;
72388;SDS011;60566;48.062;9.930;2022-07-30T06:49:34;13.95;;;7.82;;
72388;SDS011;60566;48.062;9.930;2022-07-30T06:52:01;13.75;;;8.07;;
72388;SDS011;60566;48.062;9.930;2022-07-30T06:54:27;13.52;;;7.32;;
72388;SDS011;60566;48.062;9.930;2022-07-30T06:56:53;12.75;;;8.02;;
72388;SDS011;60566;48.062;9.930;2022-07-30T06:59:18;12.93;;;8.02;;
72388;SDS011;60566;48.062;9.930;2022-07-30T07:01:43;16.42;;;8.30;;
72388;SDS011;60566;48.062;9.930;2022-07-30T07:04:09;13.63;;;8.52;;
72388;SDS011;60566;48.062;9.930;2022-07-30T07:06:34;12.75;;;8.02;;
72388;SDS011;60566;48.062;9.930;2022-07-30T07:09:01;14.82;;;9.35;;
72388;SDS011;60566;48.062;9.930;2022-07-30T07:11:27;13.15;;;8.45;;
72388;SDS011;60566;48.062;9.930;2022-07-30T07:13:52;15.48;;;8.48;;
72388;SDS011;60566;48.062;9.930;2022-07-30T07:16:17;12.18;;;8.27;;
72388;SDS011;60566;48.062;9.930;2022-07-30T07:18:43;13.85;;;9.05;;
72388;SDS011;60566;48.062;9.930;2022-07-30T07:21:08;13.57;;;8.88;;
72388;SDS011;60566;48.062;9.930;2022-07-30T07:23:33;13.48;;;7.60;;
72388;SDS011;60566;48.062;9.930;2022-07-30T07:26:00;13.27;;;8.25;;
72388;SDS011;60566;48.062;9.930;2022-07-30T07:28:26;13.27;;;7.80;;
72388;SDS011;60566;48.062;9.930;2022-07-30T07:30:51;14.43;;;6.97;;
72388;SDS011;60566;48.062;9.930;2022-07-30T07:33:16;12.93;;;7.32;;
72388;SDS011;60566;48.062;9.930;2022-07-30T07:35:42;12.68;;;7.35;;
72388;SDS011;60566;48.062;9.930;2022-07-30T07:38:07;10.75;;;6.72;;
72388;SDS011;60566;48.062;9.930;2022-07-30T07:40:32;10.98;;;7.05;;
72388;SDS011;60566;48.062;9.930;2022-07-30T07:42:59;11.10;;;6.80;;
72388;SDS011;60566;48.062;9.930;2022-07-30T07:45:25;13.18;;;7.88;;
72388;SDS011;60566;48.062;9.930;2022-07-30T07:47:50;13.15;;;7.72;;
72388;SDS011;60566;48.062;9.930;2022-07-30T07:50:17;9.35;;;6.63;;
72388;SDS011;60566;48.062;9.930;2022-07-30T07:52:42;8.90;;;6.43;;
72388;SDS011;60566;48.062;9.930;2022-07-30T07:55:08;10.50;;;7.30;;
72388;SDS011;60566;48.062;9.930;2022-07-30T07:57:37;9.68;;;6.88;;
72388;SDS011;60566;48.062;9.930;2022-07-30T08:00:04;13.98;;;7.95;;
72388;SDS011;60566;48.062;9.930;2022-07-30T08:02:31;11.82;;;7.32;;
72388;SDS011;60566;48.062;9.930;2022-07-30T08:04:56;10.48;;;6.85;;
72388;SDS011;60566;48.062;9.930;2022-07-30T08:07:22;9.05;;;6.72;;
72388;SDS011;60566;48.062;9.930;2022-07-30T08:09:47;11.95;;;6.57;;
72388;SDS011;60566;48.062;9.930;2022-07-30T08:12:12;13.80;;;8.95;;
72388;SDS011;60566;48.062;9.930;2022-07-30T08:14:38;13.95;;;7.57;;
72388;SDS011;60566;48.062;9.930;2022-07-30T08:17:04;13.88;;;7.68;;
72388;SDS011;60566;48.062;9.930;2022-07-30T08:19:30;12.52;;;8.07;;
72388;SDS011;60566;48.062;9.930;2022-07-30T08:21:55;10.93;;;7.30;;
72388;SDS011;60566;48.062;9.930;2022-07-30T08:24:20;13.13;;;7.57;;
72388;SDS011;60566;48.062;9.930;2022-07-30T08:26:46;11.93;;;7.78;;
72388;SDS011;60566;48.062;9.930;2022-07-30T08:29:11;10.73;;;6.30;;
72388;SDS011;60566;48.062;9.930;2022-07-30T08:31:37;11.38;;;6.72;;
72388;SDS011;60566;48.062;9.930;2022-07-30T08:34:03;10.82;;;6.68;;
72388;SDS011;60566;48.062;9.930;2022-07-30T08:36:29;11.45;;;7.05;;
72388;SDS011;60566;48.062;9.930;2022-07-30T08:38:54;10.27;;;6.32;;
72388;SDS011;60566;48.062;9.930;2022-07-30T08:41:19;10.05;;;5.93;;
72388;SDS011;60566;48.062;9.930;2022-07-30T08:43:45;9.32;;;5.82;;
72388;SDS011;60566;48.062;9.930;2022-07-30T08:46:14;9.35;;;6.22;;
72388;SDS011;60566;48.062;9.930;2022-07-30T08:48:42;9.32;;;5.18;;
72388;SDS011;60566;48.062;9.930;2022-07-30T08:51:09;12.20;;;5.60;;
72388;SDS011;60566;48.062;9.930;2022-07-30T08:53:34;8.30;;;5.50;;
72388;SDS011;60566;48.062;9.930;2022-07-30T08:56:00;10.55;;;5.40;;
72388;SDS011;60566;48.062;9.930;2022-07-30T08:58:26;10.80;;;5.68;;
72388;SDS011;60566;48.062;9.930;2022-07-30T09:00:52;9.43;;;4.80;;
72388;SDS011;60566;48.062;9.930;2022-07-30T09:03:18;8.00;;;5.43;;
72388;SDS011;60566;48.062;9.930;2022-07-30T09:05:43;10.60;;;4.95;;
72388;SDS011;60566;48.062;9.930;2022-07-30T09:08:10;11.82;;;5.65;;
72388;SDS011;60566;48.062;9.930;2022-07-30T09:10:35;10.95;;;5.18;;
72388;SDS011;60566;48.062;9.930;2022-07-30T09:13:01;9.27;;;5.35;;
72388;SDS011;60566;48.062;9.930;2022-07-30T09:15:26;12.05;;;6.25;;
72388;SDS011;60566;48.062;9.930;2022-07-30T09:17:53;11.02;;;5.57;;
72388;SDS011;60566;48.062;9.930;2022-07-30T09:20:20;8.98;;;5.05;;
72388;SDS011;60566;48.062;9.930;2022-07-30T09:22:48;7.80;;;5.13;;
72388;SDS011;60566;48.062;9.930;2022-07-30T09:25:16;7.93;;;4.82;;
72388;SDS011;60566;48.062;9.930;2022-07-30T09:27:57;10.55;;;5.22;;
72388;SDS011;60566;48.062;9.930;2022-07-30T09:30:22;8.15;;;5.03;;
72388;SDS011;60566;48.062;9.930;2022-07-30T09:32:48;8.50;;;5.35;;
72388;SDS011;60566;48.062;9.930;2022-07-30T09:35:15;10.00;;;5.28;;
72388;SDS011;60566;48.062;9.930;2022-07-30T09:37:40;8.07;;;4.70;;
72388;SDS011;60566;48.062;9.930;2022-07-30T09:40:13;8.95;;;5.32;;
72388;SDS011;60566;48.062;9.930;2022-07-30T09:42:40;10.98;;;6.65;;
72388;SDS011;60566;48.062;9.930;2022-07-30T09:45:07;8.68;;;5.38;;
72388;SDS011;60566;48.062;9.930;2022-07-30T09:47:34;11.13;;;5.22;;
72388;SDS011;60566;48.062;9.930;2022-07-30T09:50:00;7.60;;;5.00;;
72388;SDS011;60566;48.062;9.930;2022-07-30T09:52:27;8.85;;;5.70;;
72388;SDS011;60566;48.062;9.930;2022-07-30T09:54:52;9.02;;;5.40;;
72388;SDS011;60566;48.062;9.930;2022-07-30T09:57:18;9.48;;;5.60;;
72388;SDS011;60566;48.062;9.930;2022-07-30T09:59:45;7.80;;;5.30;;
72388;SDS011;60566;48.062;9.930;2022-07-30T10:02:10;7.10;;;4.38;;
72388;SDS011;60566;48.062;9.930;2022-07-30T10:04:36;6.30;;;4.40;;
72388;SDS011;60566;48.062;9.930;2022-07-30T10:07:02;7.32;;;4.85;;
72388;SDS011;60566;48.062;9.930;2022-07-30T10:09:28;8.15;;;4.78;;
72388;SDS011;60566;48.062;9.930;2022-07-30T10:11:56;5.97;;;4.13;;
72388;SDS011;60566;48.062;9.930;2022-07-30T10:14:22;7.15;;;4.35;;
72388;SDS011;60566;48.062;9.930;2022-07-30T10:19:16;8.30;;;4.10;;
72388;SDS011;60566;48.062;9.930;2022-07-30T10:21:42;6.40;;;4.18;;
72388;SDS011;60566;48.062;9.930;2022-07-30T10:24:08;5.03;;;3.13;;
72388;SDS011;60566;48.062;9.930;2022-07-30T10:26:34;5.50;;;3.63;;
72388;SDS011;60566;48.062;9.930;2022-07-30T10:29:00;4.95;;;3.10;;
72388;SDS011;60566;48.062;9.930;2022-07-30T10:31:25;5.72;;;3.50;;
72388;SDS011;60566;48.062;9.930;2022-07-30T10:33:52;8.60;;;4.03;;
72388;SDS011;60566;48.062;9.930;2022-07-30T10:36:17;16.05;;;3.97;;
72388;SDS011;60566;48.062;9.930;2022-07-30T10:38:43;6.85;;;3.75;;
72388;SDS011;60566;48.062;9.930;2022-07-30T10:41:10;5.72;;;3.70;;
72388;SDS011;60566;48.062;9.930;2022-07-30T10:43:53;7.70;;;3.50;;
72388;SDS011;60566;48.062;9.930;2022-07-30T10:46:26;5.75;;;3.28;;
72388;SDS011;60566;48.062;9.930;2022-07-30T10:49:07;5.65;;;2.80;;
72388;SDS011;60566;48.062;9.930;2022-07-30T10:51:43;5.35;;;2.85;;
72388;SDS011;60566;48.062;9.930;2022-07-30T10:57:01;5.25;;;3.15;;
72388;SDS011;60566;48.062;9.930;2022-07-30T10:59:28;4.03;;;2.80;;
72388;SDS011;60566;48.062;9.930;2022-07-30T11:02:06;4.85;;;3.13;;
72388;SDS011;60566;48.062;9.930;2022-07-30T11:04:34;13.40;;;3.80;;
72388;SDS011;60566;48.062;9.930;2022-07-30T11:09:51;5.95;;;3.20;;
72388;SDS011;60566;48.062;9.930;2022-07-30T11:12:50;5.45;;;2.80;;
72388;SDS011;60566;48.062;9.930;2022-07-30T11:15:19;5.65;;;3.03;;
72388;SDS011;60566;48.062;9.930;2022-07-30T11:18:01;4.38;;;3.05;;
72388;SDS011;60566;48.062;9.930;2022-07-30T11:23:07;5.82;;;3.30;;
72388;SDS011;60566;48.062;9.930;2022-07-30T11:25:37;6.28;;;3.33;;
72388;SDS011;60566;48.062;9.930;2022-07-30T11:28:04;4.25;;;2.97;;
72388;SDS011;60566;48.062;9.930;2022-07-30T11:30:30;4.63;;;3.25;;
72388;SDS011;60566;48.062;9.930;2022-07-30T11:35:55;4.20;;;2.70;;
72388;SDS011;60566;48.062;9.930;2022-07-30T11:38:29;5.45;;;3.25;;
72388;SDS011;60566;48.062;9.930;2022-07-30T11:43:40;4.53;;;3.30;;
72388;SDS011;60566;48.062;9.930;2022-07-30T11:46:06;4.50;;;2.97;;
72388;SDS011;60566;48.062;9.930;2022-07-30T11:48:33;5.28;;;3.63;;
72388;SDS011;60566;48.062;9.930;2022-07-30T11:51:00;5.35;;;3.30;;
72388;SDS011;60566;48.062;9.930;2022-07-30T11:53:26;4.75;;;3.22;;
72388;SDS011;60566;48.062;9.930;2022-07-30T11:55:52;6.03;;;3.42;;
72388;SDS011;60566;48.062;9.930;2022-07-30T11:58:22;9.02;;;2.78;;
72388;SDS011;60566;48.062;9.930;2022-07-30T12:00:49;5.50;;;2.78;;
72388;SDS011;60566;48.062;9.930;2022-07-30T12:03:15;5.07;;;2.90;;
72388;SDS011;60566;48.062;9.930;2022-07-30T12:05:41;4.72;;;2.72;;
72388;SDS011;60566;48.062;9.930;2022-07-30T12:08:08;6.30;;;3.20;;
72388;SDS011;60566;48.062;9.930;2022-07-30T12:10:34;4.60;;;2.72;;
72388;SDS011;60566;48.062;9.930;2022-07-30T12:13:07;5.35;;;2.88;;
72388;SDS011;60566;48.062;9.930;2022-07-30T12:15:35;6.30;;;2.42;;
72388;SDS011;60566;48.062;9.930;2022-07-30T12:18:01;4.07;;;2.63;;
72388;SDS011;60566;48.062;9.930;2022-07-30T12:20:26;5.20;;;2.53;;
72388;SDS011;60566;48.062;9.930;2022-07-30T12:22:52;4.10;;;2.33;;
72388;SDS011;60566;48.062;9.930;2022-07-30T12:25:19;4.07;;;2.58;;
72388;SDS011;60566;48.062;9.930;2022-07-30T12:27:45;8.02;;;2.40;;
72388;SDS011;60566;48.062;9.930;2022-07-30T12:30:11;5.70;;;2.33;;
72388;SDS011;60566;48.062;9.930;2022-07-30T12:32:37;4.63;;;2.50;;
72388;SDS011;60566;48.062;9.930;2022-07-30T12:35:03;4.20;;;2.55;;
72388;SDS011;60566;48.062;9.930;2022-07-30T12:37:29;4.45;;;2.22;;
72388;SDS011;60566;48.062;9.930;2022-07-30T12:40:07;4.07;;;2.92;;
72388;SDS011;60566;48.062;9.930;2022-07-30T12:45:01;5.82;;;2.63;;
72388;SDS011;60566;48.062;9.930;2022-07-30T12:47:27;5.82;;;3.00;;
72388;SDS011;60566;48.062;9.930;2022-07-30T12:49:53;3.97;;;2.80;;
72388;SDS011;60566;48.062;9.930;2022-07-30T12:52:23;5.50;;;2.53;;
72388;SDS011;60566;48.062;9.930;2022-07-30T12:54:59;6.63;;;2.70;;
72388;SDS011;60566;48.062;9.930;2022-07-30T12:57:26;5.70;;;2.53;;
72388;SDS011;60566;48.062;9.930;2022-07-30T13:00:01;3.92;;;2.20;;
72388;SDS011;60566;48.062;9.930;2022-07-30T13:02:29;4.00;;;2.40;;
72388;SDS011;60566;48.062;9.930;2022-07-30T13:04:56;3.65;;;1.98;;
72388;SDS011;60566;48.062;9.930;2022-07-30T13:07:25;3.38;;;2.08;;
72388;SDS011;60566;48.062;9.930;2022-07-30T13:10:04;4.85;;;2.50;;
72388;SDS011;60566;48.062;9.930;2022-07-30T13:12:30;4.47;;;2.50;;
72388;SDS011;60566;48.062;9.930;2022-07-30T13:14:56;5.90;;;2.50;;
72388;SDS011;60566;48.062;9.930;2022-07-30T13:17:22;4.88;;;2.35;;
72388;SDS011;60566;48.062;9.930;2022-07-30T13:19:48;6.20;;;2.67;;
72388;SDS011;60566;48.062;9.930;2022-07-30T13:22:13;5.38;;;2.75;;
72388;SDS011;60566;48.062;9.930;2022-07-30T13:24:39;6.68;;;2.33;;
72388;SDS011;60566;48.062;9.930;2022-07-30T13:27:04;4.35;;;2.35;;
72388;SDS011;60566;48.062;9.930;2022-07-30T13:29:29;4.90;;;2.17;;
72388;SDS011;60566;48.062;9.930;2022-07-30T13:31:55;3.80;;;2.20;;
72388;SDS011;60566;48.062;9.930;2022-07-30T13:34:21;3.95;;;2.20;;
72388;SDS011;60566;48.062;9.930;2022-07-30T13:36:47;3.47;;;2.35;;
72388;SDS011;60566;48.062;9.930;2022-07-30T13:39:12;4.10;;;2.03;;
72388;SDS011;60566;48.062;9.930;2022-07-30T13:41:38;3.85;;;2.05;;
72388;SDS011;60566;48.062;9.930;2022-07-30T13:44:03;4.65;;;2.03;;
72388;SDS011;60566;48.062;9.930;2022-07-30T13:46:28;4.07;;;2.30;;
72388;SDS011;60566;48.062;9.930;2022-07-30T13:48:54;3.63;;;2.20;;
72388;SDS011;60566;48.062;9.930;2022-07-30T13:51:20;3.60;;;1.88;;
72388;SDS011;60566;48.062;9.930;2022-07-30T13:53:46;4.53;;;2.75;;
72388;SDS011;60566;48.062;9.930;2022-07-30T13:56:11;6.13;;;2.00;;
72388;SDS011;60566;48.062;9.930;2022-07-30T13:58:37;5.85;;;2.72;;
72388;SDS011;60566;48.062;9.930;2022-07-30T14:01:02;4.60;;;2.00;;
72388;SDS011;60566;48.062;9.930;2022-07-30T14:03:28;4.38;;;1.90;;
72388;SDS011;60566;48.062;9.930;2022-07-30T14:05:53;3.85;;;2.10;;
72388;SDS011;60566;48.062;9.930;2022-07-30T14:08:20;3.38;;;2.00;;
72388;SDS011;60566;48.062;9.930;2022-07-30T14:10:46;5.32;;;2.10;;
72388;SDS011;60566;48.062;9.930;2022-07-30T14:13:11;5.32;;;2.38;;
72388;SDS011;60566;48.062;9.930;2022-07-30T14:15:36;4.30;;;1.85;;
72388;SDS011;60566;48.062;9.930;2022-07-30T14:18:02;2.40;;;1.67;;
72388;SDS011;60566;48.062;9.930;2022-07-30T14:20:27;2.92;;;1.70;;
72388;SDS011;60566;48.062;9.930;2022-07-30T14:22:53;4.60;;;2.30;;
72388;SDS011;60566;48.062;9.930;2022-07-30T14:25:20;3.55;;;1.67;;
72388;SDS011;60566;48.062;9.930;2022-07-30T14:27:45;2.67;;;1.60;;
72388;SDS011;60566;48.062;9.930;2022-07-30T14:30:11;3.00;;;1.92;;
72388;SDS011;60566;48.062;9.930;2022-07-30T14:32:37;3.83;;;1.92;;
72388;SDS011;60566;48.062;9.930;2022-07-30T14:35:03;6.72;;;2.00;;
72388;SDS011;60566;48.062;9.930;2022-07-30T14:37:30;2.80;;;1.60;;
72388;SDS011;60566;48.062;9.930;2022-07-30T14:39:55;3.70;;;1.92;;
72388;SDS011;60566;48.062;9.930;2022-07-30T14:42:22;5.68;;;2.30;;
72388;SDS011;60566;48.062;9.930;2022-07-30T14:44:47;4.20;;;2.10;;
72388;SDS011;60566;48.062;9.930;2022-07-30T14:47:13;6.13;;;2.00;;
72388;SDS011;60566;48.062;9.930;2022-07-30T14:49:39;4.55;;;2.47;;
72388;SDS011;60566;48.062;9.930;2022-07-30T14:52:04;3.85;;;1.90;;
72388;SDS011;60566;48.062;9.930;2022-07-30T14:54:30;4.68;;;2.45;;
72388;SDS011;60566;48.062;9.930;2022-07-30T14:56:56;4.63;;;2.13;;
72388;SDS011;60566;48.062;9.930;2022-07-30T14:59:23;5.28;;;2.08;;
72388;SDS011;60566;48.062;9.930;2022-07-30T15:01:48;3.47;;;2.05;;
72388;SDS011;60566;48.062;9.930;2022-07-30T15:04:14;3.50;;;2.22;;